createdAt,value
2023-01-30T00:01:01.570Z,23.33
2023-01-30T00:03:28.052Z,27.08
2023-01-30T00:05:54.478Z,25.73
2023-01-30T00:08:21.331Z,23.77
2023-01-30T00:10:48.165Z,24.58
2023-01-30T00:13:15.002Z,22.65
2023-01-30T00:15:41.810Z,24.73
2023-01-30T00:18:08.316Z,29.50
2023-01-30T00:20:34.768Z,25.73
2023-01-30T00:23:01.710Z,27.58
2023-01-30T00:25:28.704Z,28.27
2023-01-30T00:27:55.281Z,26.25
2023-01-30T00:30:21.753Z,24.65
2023-01-30T00:32:48.265Z,31.52
2023-01-30T00:35:14.680Z,27.10
2023-01-30T00:37:41.072Z,23.33
2023-01-30T00:40:07.660Z,26.65
2023-01-30T00:42:52.460Z,24.17
2023-01-30T00:45:37.453Z,24.08
2023-01-30T00:48:03.935Z,23.75
2023-01-30T00:50:42.469Z,33.35
2023-01-30T00:53:09.964Z,26.33
2023-01-30T00:55:36.284Z,25.50
2023-01-30T00:58:02.688Z,29.77
2023-01-30T01:00:29.256Z,26.17
2023-01-30T01:02:56.868Z,26.20
2023-01-30T01:05:23.295Z,32.10
2023-01-30T01:07:49.664Z,31.90
2023-01-30T01:10:16.638Z,28.02
2023-01-30T01:12:44.708Z,27.15
2023-01-30T01:15:14.596Z,30.05
2023-01-30T01:17:41.780Z,25.15
2023-01-30T01:20:08.842Z,31.35
2023-01-30T01:22:35.258Z,28.35
2023-01-30T01:25:01.795Z,33.83
2023-01-30T01:27:28.678Z,36.50
2023-01-30T01:29:55.212Z,28.88
2023-01-30T01:32:22.172Z,29.30
2023-01-30T01:34:48.567Z,28.42
2023-01-30T01:37:15.032Z,35.65
2023-01-30T01:40:00.239Z,25.25
2023-01-30T01:42:28.985Z,28.17
2023-01-30T01:45:04.752Z,29.70
2023-01-30T01:47:32.722Z,31.67
2023-01-30T01:49:59.297Z,28.95
2023-01-30T01:52:26.050Z,28.20
2023-01-30T01:54:52.409Z,31.42
2023-01-30T01:57:24.645Z,30.17
2023-01-30T02:00:13.760Z,33.13
2023-01-30T02:02:41.719Z,30.38
2023-01-30T02:05:11.182Z,31.13
2023-01-30T02:07:37.553Z,30.02
2023-01-30T02:10:04.667Z,30.13
2023-01-30T02:12:31.406Z,32.13
2023-01-30T02:14:59.550Z,31.88
2023-01-30T02:17:26.076Z,32.78
2023-01-30T02:20:00.517Z,33.65
2023-01-30T02:22:45.755Z,32.55
2023-01-30T02:25:12.189Z,34.80
2023-01-30T02:27:41.637Z,30.50
2023-01-30T02:30:26.896Z,33.83
2023-01-30T02:33:11.440Z,36.05
2023-01-30T02:35:52.814Z,31.45
2023-01-30T02:38:29.749Z,33.38
2023-01-30T02:41:20.486Z,31.88
2023-01-30T02:43:57.672Z,32.03
2023-01-30T02:46:32.682Z,30.38
2023-01-30T02:49:11.505Z,34.95
2023-01-30T02:51:38.906Z,39.55
2023-01-30T02:54:06.645Z,31.10
2023-01-30T02:56:53.333Z,34.90
2023-01-30T02:59:22.643Z,38.90
2023-01-30T03:02:11.385Z,32.55
2023-01-30T03:05:01.035Z,35.70
2023-01-30T03:07:46.323Z,33.17
2023-01-30T03:10:29.944Z,33.55
2023-01-30T03:13:10.187Z,35.45
2023-01-30T03:15:50.086Z,32.05
2023-01-30T03:18:20.369Z,35.65
2023-01-30T03:20:47.040Z,30.58
2023-01-30T03:23:14.284Z,31.85
2023-01-30T03:25:42.174Z,33.33
2023-01-30T03:28:08.955Z,35.83
2023-01-30T03:30:35.349Z,32.13
2023-01-30T03:33:01.811Z,31.90
2023-01-30T03:35:29.358Z,33.78
2023-01-30T03:37:55.889Z,31.88
2023-01-30T03:40:22.757Z,37.17
2023-01-30T03:42:49.172Z,31.52
2023-01-30T03:45:16.306Z,30.02
2023-01-30T03:47:42.896Z,37.03
2023-01-30T03:50:09.677Z,35.03
2023-01-30T03:52:36.177Z,32.95
2023-01-30T03:55:03.027Z,35.00
2023-01-30T03:57:29.498Z,35.25
2023-01-30T03:59:55.916Z,36.65
2023-01-30T04:02:23.462Z,34.85
2023-01-30T04:04:49.909Z,30.23
2023-01-30T04:07:16.347Z,35.90
2023-01-30T04:09:42.715Z,36.22
2023-01-30T04:12:09.150Z,33.47
2023-01-30T04:14:35.641Z,35.72
2023-01-30T04:17:02.084Z,33.65
2023-01-30T04:19:28.626Z,36.97
2023-01-30T04:21:55.085Z,33.05
2023-01-30T04:24:21.456Z,34.55
2023-01-30T04:26:47.963Z,40.60
2023-01-30T04:29:14.476Z,31.33
2023-01-30T04:31:42.177Z,35.28
2023-01-30T04:34:08.589Z,35.40
2023-01-30T04:36:34.999Z,34.88
2023-01-30T04:39:01.434Z,35.25
2023-01-30T04:41:27.863Z,32.40
2023-01-30T04:43:54.242Z,32.05
2023-01-30T04:46:20.624Z,32.92
2023-01-30T04:48:46.987Z,36.42
2023-01-30T04:51:13.357Z,30.40
2023-01-30T04:53:39.811Z,37.50
2023-01-30T04:56:06.516Z,33.97
2023-01-30T04:58:32.920Z,30.45
2023-01-30T05:01:22.744Z,28.35
2023-01-30T05:03:50.251Z,27.17
2023-01-30T05:06:16.642Z,30.27
2023-01-30T05:08:44.789Z,32.47
2023-01-30T05:11:13.055Z,29.35
2023-01-30T05:13:39.445Z,28.92
2023-01-30T05:16:05.937Z,28.23
2023-01-30T05:18:32.357Z,24.10
2023-01-30T05:21:06.191Z,26.92
2023-01-30T05:23:32.671Z,22.38
2023-01-30T05:25:59.767Z,20.75
2023-01-30T05:28:26.325Z,27.17
2023-01-30T05:30:52.775Z,23.45
2023-01-30T05:33:19.282Z,24.08
2023-01-30T05:35:49.144Z,20.77
2023-01-30T05:38:16.113Z,23.50
2023-01-30T05:40:42.832Z,19.08
2023-01-30T05:43:09.784Z,19.42
2023-01-30T05:45:36.683Z,20.10
2023-01-30T05:48:03.348Z,19.77
2023-01-30T05:50:31.280Z,18.70
2023-01-30T05:52:57.676Z,17.40
2023-01-30T05:55:24.061Z,19.33
2023-01-30T05:57:50.476Z,17.98
2023-01-30T06:00:17.166Z,18.55
2023-01-30T06:02:43.647Z,21.38
2023-01-30T06:05:10.034Z,17.92
2023-01-30T06:07:36.462Z,17.00
2023-01-30T06:10:02.902Z,17.65
2023-01-30T06:12:29.270Z,19.83
2023-01-30T06:14:55.765Z,19.40
2023-01-30T06:17:22.170Z,16.42
2023-01-30T06:19:48.598Z,19.23
2023-01-30T06:22:15.029Z,15.20
2023-01-30T06:24:41.443Z,14.77
2023-01-30T06:27:07.868Z,15.05
2023-01-30T06:29:34.298Z,15.25
2023-01-30T06:32:00.674Z,14.05
2023-01-30T06:34:27.105Z,18.85
2023-01-30T06:36:53.468Z,10.55
2023-01-30T06:39:19.921Z,11.77
2023-01-30T06:41:46.361Z,14.77
2023-01-30T06:44:15.673Z,9.90
2023-01-30T06:46:42.024Z,13.65
2023-01-30T06:49:08.467Z,11.23
2023-01-30T06:51:34.873Z,10.00
2023-01-30T06:54:02.544Z,12.25
2023-01-30T06:56:28.995Z,8.63
2023-01-30T06:58:55.422Z,8.40
2023-01-30T07:01:24.185Z,8.10
2023-01-30T07:03:50.875Z,9.20
2023-01-30T07:06:17.310Z,8.93
2023-01-30T07:08:44.500Z,9.98
2023-01-30T07:11:10.968Z,8.60
2023-01-30T07:13:37.433Z,10.82
2023-01-30T07:16:03.871Z,8.85
2023-01-30T07:18:30.305Z,8.23
2023-01-30T07:20:56.729Z,10.40
2023-01-30T07:23:23.193Z,8.55
2023-01-30T07:25:49.654Z,12.32
2023-01-30T07:28:16.037Z,9.55
2023-01-30T07:30:42.547Z,11.55
2023-01-30T07:33:09.112Z,11.60
2023-01-30T07:35:36.388Z,10.57
2023-01-30T07:38:03.216Z,11.25
2023-01-30T07:40:29.653Z,9.95
2023-01-30T07:43:00.420Z,7.55
2023-01-30T07:45:40.464Z,10.13
2023-01-30T07:48:07.755Z,8.90
2023-01-30T07:50:34.204Z,9.73
2023-01-30T07:53:03.060Z,10.25
2023-01-30T07:55:29.420Z,12.73
2023-01-30T07:57:56.081Z,14.27
2023-01-30T08:00:22.481Z,10.88
2023-01-30T08:02:48.835Z,10.60
2023-01-30T08:05:15.783Z,7.63
2023-01-30T08:07:48.655Z,6.30
2023-01-30T08:10:15.532Z,8.20
2023-01-30T08:12:42.252Z,7.10
2023-01-30T08:15:09.020Z,6.05
2023-01-30T08:17:35.410Z,11.15
2023-01-30T08:20:03.778Z,7.95
2023-01-30T08:22:30.170Z,5.18
2023-01-30T08:24:56.528Z,8.23
2023-01-30T08:27:22.978Z,5.78
2023-01-30T08:29:51.395Z,4.90
2023-01-30T08:32:17.753Z,4.90
2023-01-30T08:35:04.193Z,4.30
2023-01-30T08:37:30.622Z,4.47
2023-01-30T08:42:40.839Z,3.83
2023-01-30T08:45:34.425Z,4.07
2023-01-30T08:48:11.912Z,2.92
2023-01-30T08:50:38.404Z,3.33
2023-01-30T08:53:13.179Z,4.55
2023-01-30T08:56:21.027Z,4.53
2023-01-30T08:59:05.156Z,4.38
2023-01-30T09:01:40.227Z,5.68
2023-01-30T09:04:06.737Z,5.03
2023-01-30T09:06:47.879Z,5.50
2023-01-30T09:09:31.193Z,5.38
2023-01-30T09:14:43.728Z,9.10
2023-01-30T09:17:53.743Z,5.20
2023-01-30T09:20:32.721Z,10.35
2023-01-30T09:22:59.704Z,10.90
2023-01-30T09:25:44.297Z,10.68
2023-01-30T09:28:19.657Z,12.82
2023-01-30T09:30:46.187Z,13.05
2023-01-30T09:33:17.873Z,12.13
2023-01-30T09:35:46.874Z,10.82
2023-01-30T09:38:16.769Z,11.77
2023-01-30T09:40:54.070Z,6.82
2023-01-30T09:43:32.744Z,9.55
2023-01-30T09:46:22.810Z,7.78
2023-01-30T09:48:56.833Z,9.40
2023-01-30T09:51:50.704Z,12.35
2023-01-30T09:54:26.302Z,8.65
2023-01-30T09:57:46.967Z,9.88
2023-01-30T10:03:00.452Z,8.23
2023-01-30T10:06:18.367Z,10.98
2023-01-30T10:08:46.289Z,16.65
2023-01-30T10:15:26.038Z,9.90
2023-01-30T11:12:11.211Z,11.07
2023-01-30T11:28:52.458Z,15.77
2023-01-30T11:35:04.968Z,11.02
